To NAV CANADA Home Page Login to a new session Search on AWWS site Feedback and Comments Disclaimer Vers la page française équivalente Tips FAQ What's new on the site To the Forecasts and Observations / NOTAM section To "File a Flight Plan" website Publications and other links Update of the User's profile FIC Telephone Numbers My Weather Data Folder Route Weather Data Regional Weather Data Local Weather Data To the Forecasts and Observations / NOTAM section
Request Generated 04/30/2017 at 05:10:49 UTC . Weather information available at that time is displayed.

METAR/TAF

KINGSTON/ON    

LWIS CYGK 300500Z AUTO 03007G15KT 06/M04 A3031=
LWIS CYGK 300400Z AUTO 03008KT 06/M03 A3029=
METAR CYGK 300300Z 03010G17KT 15SM SKC 07/M03 A3025 RMK LAST STFD
OBS/NEXT 301000 UTC PRESRR SLP248=

*** REMARK        : Forecast period has ended; this was the last TAF issued
*** REMARQUE : La période de prévision est échue; ceci était le dernier TAF qui a été émis
TAF CYGK 291938Z 2920/3003 23012G22KT P6SM FEW030
BECMG 2922/2924 33010KT
RMK NXT FCST WILL BE ISSUED AT 301145Z=
Your time UTC time
Weather data provided by Environment Canada and NAV CANADA